Time;durP1;ratioP1;P1;durP2;ratioP2;P2;SDS_P1;SDS_P2;PMS_P1;PMS_P2;Temp;Humidity;BMP_temperature;BMP_pressure;BME280_temperature;BME280_humidity;BME280_pressure;Samples;Min_cycle;Max_cycle;Signal;HPM_P1;HPM_P2
2023/04/25 00:02:39;;;;;;;8.23;5.55;;;;;;;;;;10131025;28;20072;-67
2023/04/25 00:07:34;;;;;;;8.38;5.47;;;;;;;;;;10124669;28;20076;-66
2023/04/25 00:12:29;;;;;;;9.18;5.22;;;;;;;;;;10120939;28;20057;-67
2023/04/25 00:17:24;;;;;;;6.32;5.72;;;;;;;;;;10102749;28;20073;-67
2023/04/25 00:22:17;;;;;;;12.00;5.40;;;;;;;;;;10127605;28;20056;-68
2023/04/25 00:27:12;;;;;;;6.05;5.18;;;;;;;;;;10130323;28;20067;-68
2023/04/25 00:32:04;;;;;;;9.57;6.20;;;;;;;;;;10113369;28;20044;-67
2023/04/25 00:36:57;;;;;;;6.45;5.80;;;;;;;;;;10090085;28;20103;-68
2023/04/25 00:41:53;;;;;;;12.35;6.68;;;;;;;;;;10112614;28;20518;-67
2023/04/25 00:46:49;;;;;;;6.53;5.68;;;;;;;;;;10129776;28;20055;-68
2023/04/25 00:51:46;;;;;;;9.93;5.38;;;;;;;;;;10087070;28;20464;-68
2023/04/25 00:56:38;;;;;;;6.75;5.72;;;;;;;;;;10072878;28;20092;-67
2023/04/25 01:01:31;;;;;;;6.07;4.97;;;;;;;;;;10052522;28;20132;-67
2023/04/25 01:06:25;;;;;;;8.77;5.20;;;;;;;;;;10086581;28;20079;-67
2023/04/25 01:11:18;;;;;;;6.40;4.72;;;;;;;;;;10095220;28;20408;-67
2023/04/25 01:16:11;;;;;;;5.55;4.50;;;;;;;;;;10081894;28;20124;-67
2023/04/25 01:21:12;;;;;;;5.18;4.55;;;;;;;;;;10080236;28;20056;-68
2023/04/25 01:26:07;;;;;;;9.63;5.43;;;;;;;;;;10059931;28;20606;-68
2023/04/25 01:31:03;;;;;;;6.07;5.15;;;;;;;;;;10088993;28;20076;-67
2023/04/25 01:35:56;;;;;;;7.55;5.38;;;;;;;;;;10073814;28;20041;-68
2023/04/25 01:40:52;;;;;;;8.70;4.97;;;;;;;;;;10059595;28;20092;-67
2023/04/25 01:45:46;;;;;;;5.82;4.40;;;;;;;;;;10062201;28;20107;-67
2023/04/25 01:50:40;;;;;;;7.45;4.32;;;;;;;;;;10086815;28;20060;-66
2023/04/25 01:55:34;;;;;;;7.05;4.45;;;;;;;;;;10061066;28;20107;-67
2023/04/25 02:00:31;;;;;;;8.50;4.88;;;;;;;;;;10082445;28;20056;-67
2023/04/25 02:05:24;;;;;;;5.07;3.85;;;;;;;;;;10099144;28;20503;-68
2023/04/25 02:10:19;;;;;;;5.20;4.50;;;;;;;;;;10090667;28;20055;-67
2023/04/25 02:15:50;;;;;;;5.40;3.80;;;;;;;;;;10077353;28;20417;-68
2023/04/25 02:20:46;;;;;;;4.28;3.65;;;;;;;;;;10065943;28;20531;-68
2023/04/25 02:25:39;;;;;;;4.28;3.75;;;;;;;;;;10072268;28;20049;-68
2023/04/25 02:30:33;;;;;;;6.07;4.32;;;;;;;;;;10059145;28;20055;-68
2023/04/25 02:35:30;;;;;;;4.80;3.95;;;;;;;;;;10057994;28;20599;-68
2023/04/25 02:40:23;;;;;;;7.93;4.15;;;;;;;;;;10057208;28;20049;-68
2023/04/25 02:45:19;;;;;;;6.07;3.33;;;;;;;;;;10091580;28;20493;-68
2023/04/25 02:50:12;;;;;;;5.40;3.50;;;;;;;;;;10109338;28;20049;-70
2023/04/25 02:55:08;;;;;;;4.22;3.30;;;;;;;;;;10130759;28;20041;-68
2023/04/25 03:00:04;;;;;;;6.18;3.22;;;;;;;;;;10114468;28;20056;-69
2023/04/25 03:04:57;;;;;;;4.57;4.13;;;;;;;;;;10134119;28;20403;-68
2023/04/25 03:09:52;;;;;;;5.22;3.80;;;;;;;;;;10120474;28;20073;-68
2023/04/25 03:14:45;;;;;;;6.97;4.10;;;;;;;;;;10093227;28;20438;-68
2023/04/25 03:19:40;;;;;;;5.53;4.20;;;;;;;;;;10104729;28;20048;-68
2023/04/25 03:24:34;;;;;;;5.03;3.60;;;;;;;;;;10099264;28;20507;-68
2023/04/25 03:29:28;;;;;;;5.93;3.05;;;;;;;;;;10103145;28;20414;-68
2023/04/25 03:34:25;;;;;;;5.07;3.28;;;;;;;;;;10104559;28;20056;-68
2023/04/25 03:39:20;;;;;;;5.00;3.40;;;;;;;;;;10130083;28;20488;-68
2023/04/25 03:44:15;;;;;;;4.07;3.22;;;;;;;;;;10103706;28;20504;-68
2023/04/25 03:49:08;;;;;;;4.95;3.25;;;;;;;;;;10099804;28;20076;-69
2023/04/25 03:54:26;;;;;;;6.30;3.75;;;;;;;;;;10109853;28;20052;-69
2023/04/25 03:59:25;;;;;;;4.70;3.22;;;;;;;;;;10099698;28;20127;-69
2023/04/25 04:04:19;;;;;;;4.43;3.30;;;;;;;;;;10120537;28;20551;-69
2023/04/25 04:09:15;;;;;;;4.95;4.18;;;;;;;;;;10111022;28;20040;-69
2023/04/25 04:14:10;;;;;;;10.25;3.40;;;;;;;;;;10100276;28;20045;-69
2023/04/25 04:19:09;;;;;;;6.50;4.45;;;;;;;;;;10099341;28;20067;-68
2023/04/25 04:24:06;;;;;;;7.43;5.32;;;;;;;;;;10103060;28;20522;-68
2023/04/25 04:29:20;;;;;;;8.35;4.50;;;;;;;;;;10105850;28;20152;-68
2023/04/25 04:34:25;;;;;;;5.70;4.00;;;;;;;;;;10092619;28;20115;-68
2023/04/25 04:39:20;;;;;;;4.07;3.60;;;;;;;;;;10090468;28;20051;-68
2023/04/25 04:44:41;;;;;;;6.93;3.78;;;;;;;;;;10127949;28;20115;-68
2023/04/25 04:49:49;;;;;;;7.78;3.63;;;;;;;;;;10097601;28;20048;-68
2023/04/25 04:54:57;;;;;;;6.45;3.75;;;;;;;;;;10105484;28;20048;-68
2023/04/25 05:00:29;;;;;;;8.25;4.05;;;;;;;;;;10103138;28;20071;-68
2023/04/25 05:05:57;;;;;;;6.53;4.07;;;;;;;;;;10114519;28;20102;-68
2023/04/25 05:11:19;;;;;;;5.88;4.28;;;;;;;;;;10036900;28;20068;-69
2023/04/25 05:16:38;;;;;;;4.67;4.00;;;;;;;;;;10103666;28;20485;-68
2023/04/25 05:21:57;;;;;;;5.22;4.72;;;;;;;;;;10111930;28;20295;-68
2023/04/25 05:27:03;;;;;;;7.80;5.45;;;;;;;;;;10110133;28;20040;-68
2023/04/25 05:32:05;;;;;;;4.00;3.60;;;;;;;;;;10138024;28;20140;-68
2023/04/25 05:36:58;;;;;;;7.13;4.28;;;;;;;;;;10105980;28;20053;-68
2023/04/25 05:41:51;;;;;;;5.93;4.82;;;;;;;;;;10103357;28;20531;-68
2023/04/25 05:47:04;;;;;;;9.95;5.15;;;;;;;;;;10109994;28;20061;-68
2023/04/25 05:52:18;;;;;;;9.18;4.50;;;;;;;;;;10080309;28;20411;-68
2023/04/25 05:57:46;;;;;;;8.68;4.50;;;;;;;;;;10077091;28;20114;-69
2023/04/25 06:02:42;;;;;;;8.63;3.25;;;;;;;;;;10080367;28;20045;-69
2023/04/25 06:07:38;;;;;;;3.85;3.55;;;;;;;;;;10094644;28;20064;-69
2023/04/25 06:12:35;;;;;;;5.93;3.10;;;;;;;;;;10080783;28;20095;-70
2023/04/25 06:17:48;;;;;;;4.80;3.47;;;;;;;;;;10089047;28;20045;-69
2023/04/25 06:22:42;;;;;;;14.68;5.07;;;;;;;;;;10084673;28;20076;-69
2023/04/25 06:27:36;;;;;;;6.15;4.68;;;;;;;;;;10096445;28;20053;-68
2023/04/25 06:32:30;;;;;;;7.28;4.68;;;;;;;;;;10098723;28;20045;-69
2023/04/25 06:37:25;;;;;;;7.82;4.80;;;;;;;;;;10086818;28;20045;-66
2023/04/25 06:42:18;;;;;;;5.40;4.43;;;;;;;;;;10070470;28;20049;-68
2023/04/25 06:47:22;;;;;;;7.40;6.00;;;;;;;;;;10068250;28;20512;-68
2023/04/25 06:52:17;;;;;;;11.38;5.60;;;;;;;;;;10109727;28;20140;-67
2023/04/25 06:57:11;;;;;;;6.43;4.93;;;;;;;;;;10114432;28;20049;-67
2023/04/25 07:02:05;;;;;;;9.45;5.30;;;;;;;;;;10096734;28;20052;-68
2023/04/25 07:07:00;;;;;;;7.43;4.88;;;;;;;;;;10106872;28;20049;-72
2023/04/25 07:12:05;;;;;;;7.28;4.43;;;;;;;;;;10105571;28;20458;-68
2023/04/25 07:16:59;;;;;;;7.18;4.40;;;;;;;;;;10123539;28;20134;-73
2023/04/25 07:21:55;;;;;;;7.28;5.18;;;;;;;;;;10129516;28;20517;-72
2023/04/25 07:26:52;;;;;;;8.20;4.78;;;;;;;;;;10127335;28;20048;-73
2023/04/25 07:31:55;;;;;;;7.18;4.78;;;;;;;;;;10118622;28;20036;-71
2023/04/25 07:36:48;;;;;;;6.13;5.15;;;;;;;;;;10116075;28;20052;-70
2023/04/25 07:41:41;;;;;;;7.32;4.95;;;;;;;;;;10123763;28;20048;-71
2023/04/25 07:46:39;;;;;;;10.37;5.87;;;;;;;;;;10131118;28;20165;-71
2023/04/25 07:51:35;;;;;;;6.97;5.03;;;;;;;;;;10135318;28;20132;-71
2023/04/25 07:56:35;;;;;;;7.53;5.93;;;;;;;;;;10126635;28;20707;-73
2023/04/25 08:01:44;;;;;;;8.65;5.07;;;;;;;;;;10124376;28;20098;-73
2023/04/25 08:06:38;;;;;;;6.65;5.68;;;;;;;;;;10124125;28;20048;-71
2023/04/25 08:11:38;;;;;;;5.63;4.57;;;;;;;;;;10115728;28;20052;-71
2023/04/25 08:16:33;;;;;;;6.57;4.43;;;;;;;;;;10100381;28;20095;-71
2023/04/25 08:21:28;;;;;;;4.80;3.63;;;;;;;;;;10106695;28;20049;-71
2023/04/25 08:26:25;;;;;;;6.47;3.28;;;;;;;;;;10100386;28;20487;-75
2023/04/25 08:31:18;;;;;;;2.50;2.05;;;;;;;;;;10134956;28;20460;-72
2023/04/25 08:36:20;;;;;;;3.45;1.60;;;;;;;;;;10132936;28;20044;-74
2023/04/25 08:41:32;;;;;;;2.45;1.05;;;;;;;;;;10134848;28;20045;-73
2023/04/25 08:46:31;;;;;;;2.15;1.30;;;;;;;;;;10148791;28;20063;-71
2023/04/25 08:51:45;;;;;;;1.02;1.02;;;;;;;;;;10123297;28;20411;-69
2023/04/25 08:56:39;;;;;;;1.42;0.88;;;;;;;;;;10135228;28;20550;-71
2023/04/25 09:01:33;;;;;;;1.17;1.00;;;;;;;;;;10147582;28;20047;-71
2023/04/25 09:06:27;;;;;;;0.95;0.75;;;;;;;;;;10123091;28;20153;-73
2023/04/25 09:11:21;;;;;;;2.53;0.80;;;;;;;;;;10114038;28;20128;-72
2023/04/25 09:16:21;;;;;;;1.25;0.95;;;;;;;;;;10124735;28;20048;-71
2023/04/25 09:21:36;;;;;;;2.90;1.20;;;;;;;;;;10146630;28;20067;-71
2023/04/25 09:26:31;;;;;;;3.50;1.48;;;;;;;;;;10135612;28;20072;-72
2023/04/25 09:31:26;;;;;;;2.90;0.90;;;;;;;;;;10132751;28;20047;-72
2023/04/25 09:36:27;;;;;;;2.70;1.25;;;;;;;;;;10130056;28;20051;-72
2023/04/25 09:41:45;;;;;;;1.77;1.30;;;;;;;;;;10121326;28;20060;-73
2023/04/25 09:46:39;;;;;;;1.92;1.40;;;;;;;;;;10124836;28;20143;-74
2023/04/25 09:51:41;;;;;;;2.75;1.20;;;;;;;;;;10122967;28;20518;-65
2023/04/25 09:56:39;;;;;;;3.28;1.52;;;;;;;;;;10120906;28;20411;-66
2023/04/25 10:01:33;;;;;;;1.77;1.15;;;;;;;;;;10142055;28;20037;-64
2023/04/25 10:06:38;;;;;;;1.90;1.23;;;;;;;;;;10109973;28;20135;-63
2023/04/25 10:11:32;;;;;;;1.92;1.42;;;;;;;;;;10153507;28;20048;-66
2023/04/25 10:16:25;;;;;;;3.30;2.13;;;;;;;;;;10133479;28;20052;-64
2023/04/25 10:21:19;;;;;;;2.97;1.27;;;;;;;;;;10138589;28;20045;-64
2023/04/25 10:26:14;;;;;;;1.38;1.27;;;;;;;;;;10146954;28;20033;-65
2023/04/25 10:31:08;;;;;;;3.05;1.67;;;;;;;;;;10122740;28;20387;-66
2023/04/25 10:36:12;;;;;;;3.08;1.70;;;;;;;;;;10114659;28;20151;-68
2023/04/25 10:41:09;;;;;;;4.00;1.55;;;;;;;;;;10132817;28;20381;-67
2023/04/25 10:46:12;;;;;;;1.05;0.98;;;;;;;;;;10111029;28;20051;-67
2023/04/25 10:51:09;;;;;;;2.45;1.08;;;;;;;;;;10114290;28;20084;-66
2023/04/25 10:56:22;;;;;;;2.20;1.90;;;;;;;;;;10137951;28;20037;-66
2023/04/25 11:01:23;;;;;;;3.45;1.20;;;;;;;;;;10142005;28;20040;-67
2023/04/25 11:06:38;;;;;;;1.92;1.33;;;;;;;;;;10131295;28;20055;-67
2023/04/25 11:11:37;;;;;;;1.98;1.60;;;;;;;;;;10124431;28;20213;-66
2023/04/25 11:16:36;;;;;;;2.70;1.60;;;;;;;;;;10128072;28;20048;-67
2023/04/25 11:21:37;;;;;;;2.63;2.00;;;;;;;;;;10124123;28;20087;-66
2023/04/25 11:26:40;;;;;;;2.67;1.58;;;;;;;;;;10114813;28;20061;-65
2023/04/25 11:31:41;;;;;;;1.40;1.30;;;;;;;;;;10126950;28;20554;-69
2023/04/25 11:36:44;;;;;;;2.90;1.77;;;;;;;;;;10127708;28;20053;-66
2023/04/25 11:41:44;;;;;;;2.80;1.48;;;;;;;;;;10134630;28;20133;-70
2023/04/25 11:46:43;;;;;;;2.20;1.67;;;;;;;;;;10112829;28;20134;-67
2023/04/25 11:51:48;;;;;;;2.58;1.45;;;;;;;;;;10134412;28;20503;-71
2023/04/25 11:56:48;;;;;;;5.70;1.55;;;;;;;;;;10129492;28;20589;-70
2023/04/25 12:01:53;;;;;;;2.10;1.00;;;;;;;;;;10130352;28;20126;-71
2023/04/25 12:06:55;;;;;;;1.33;1.13;;;;;;;;;;10132393;28;20057;-71
2023/04/25 12:11:59;;;;;;;0.93;0.93;;;;;;;;;;10134877;28;20041;-71
2023/04/25 12:17:00;;;;;;;4.80;1.20;;;;;;;;;;10128883;28;20448;-71
2023/04/25 12:21:59;;;;;;;2.22;0.95;;;;;;;;;;10135733;28;20051;-69
2023/04/25 12:27:07;;;;;;;3.72;1.85;;;;;;;;;;10138477;28;20055;-69
2023/04/25 12:32:07;;;;;;;5.13;0.80;;;;;;;;;;10137841;28;20045;-70
2023/04/25 12:37:04;;;;;;;1.10;1.00;;;;;;;;;;10130389;28;20091;-71
2023/04/25 12:42:04;;;;;;;1.02;0.90;;;;;;;;;;10113161;28;20057;-69
2023/04/25 12:47:06;;;;;;;2.08;0.90;;;;;;;;;;10114964;28;20113;-69
2023/04/25 12:52:01;;;;;;;1.40;0.80;;;;;;;;;;10082881;28;20132;-69
2023/04/25 12:56:59;;;;;;;2.88;1.00;;;;;;;;;;10080779;28;20045;-69
2023/04/25 13:01:56;;;;;;;1.10;1.00;;;;;;;;;;9920589;28;20530;-69
2023/04/25 13:06:55;;;;;;;1.38;0.93;;;;;;;;;;9942678;28;20297;-68
2023/04/25 13:11:51;;;;;;;1.17;0.80;;;;;;;;;;9935850;28;20043;-69
2023/04/25 13:16:52;;;;;;;2.25;0.93;;;;;;;;;;9945519;28;20128;-68
2023/04/25 13:21:49;;;;;;;1.15;0.85;;;;;;;;;;10074313;28;20053;-67
2023/04/25 13:26:44;;;;;;;0.80;0.70;;;;;;;;;;10082285;28;20041;-69
2023/04/25 13:31:38;;;;;;;5.53;2.00;;;;;;;;;;10103486;28;20060;-68
2023/04/25 13:36:32;;;;;;;1.25;1.15;;;;;;;;;;10117566;28;20086;-68
2023/04/25 13:41:29;;;;;;;1.20;0.80;;;;;;;;;;10108090;28;20048;-68
2023/04/25 13:46:24;;;;;;;0.90;0.80;;;;;;;;;;10109104;28;20153;-68
2023/04/25 13:51:37;;;;;;;3.15;0.70;;;;;;;;;;10110595;28;20041;-68
2023/04/25 13:56:30;;;;;;;4.35;0.80;;;;;;;;;;10109998;28;20522;-70
2023/04/25 14:01:27;;;;;;;1.73;0.77;;;;;;;;;;10115986;28;20477;-66
2023/04/25 14:06:22;;;;;;;1.30;0.70;;;;;;;;;;10111885;28;20408;-67
2023/04/25 14:11:18;;;;;;;1.38;0.80;;;;;;;;;;10105492;28;20556;-67
2023/04/25 14:16:11;;;;;;;1.05;0.68;;;;;;;;;;10108406;28;20136;-67
2023/04/25 14:21:05;;;;;;;1.25;0.82;;;;;;;;;;10107550;28;20048;-67
2023/04/25 14:25:58;;;;;;;2.08;1.00;;;;;;;;;;10110475;28;20499;-66
2023/04/25 14:30:52;;;;;;;2.60;1.20;;;;;;;;;;10090491;28;20033;-67
2023/04/25 14:35:45;;;;;;;1.08;0.90;;;;;;;;;;10098883;28;20056;-67
2023/04/25 14:40:40;;;;;;;1.20;0.68;;;;;;;;;;10091969;28;20054;-70
2023/04/25 14:45:34;;;;;;;2.35;1.77;;;;;;;;;;10102015;28;20059;-67
2023/04/25 14:50:28;;;;;;;1.42;1.23;;;;;;;;;;10139418;28;20143;-68
2023/04/25 14:55:23;;;;;;;1.83;0.73;;;;;;;;;;10144790;28;20043;-66
2023/04/25 15:00:20;;;;;;;4.30;1.00;;;;;;;;;;10141067;28;20124;-66
2023/04/25 15:05:13;;;;;;;1.05;0.90;;;;;;;;;;10132860;28;20106;-67
2023/04/25 15:10:15;;;;;;;3.63;0.75;;;;;;;;;;10147155;28;20040;-65
2023/04/25 15:15:11;;;;;;;1.80;0.80;;;;;;;;;;10140403;28;20136;-65
2023/04/25 15:20:12;;;;;;;1.17;0.60;;;;;;;;;;10145433;28;20040;-67
2023/04/25 15:25:09;;;;;;;9.95;0.93;;;;;;;;;;10144065;28;20064;-69
2023/04/25 15:30:07;;;;;;;3.08;0.82;;;;;;;;;;10145290;28;20635;-65
2023/04/25 15:35:07;;;;;;;2.38;0.77;;;;;;;;;;10141772;28;20136;-64
2023/04/25 15:40:12;;;;;;;1.25;0.80;;;;;;;;;;10151043;28;20051;-65
2023/04/25 15:45:07;;;;;;;1.58;0.70;;;;;;;;;;10127560;28;20445;-66
2023/04/25 15:50:08;;;;;;;8.20;1.05;;;;;;;;;;10134496;28;20073;-64
2023/04/25 15:55:03;;;;;;;4.80;2.25;;;;;;;;;;10143064;28;20048;-66
2023/04/25 15:59:56;;;;;;;3.97;1.15;;;;;;;;;;10146614;28;20082;-66
2023/04/25 16:04:50;;;;;;;5.97;1.10;;;;;;;;;;10138462;28;20040;-66
2023/04/25 16:09:45;;;;;;;3.95;0.80;;;;;;;;;;10142938;28;20055;-67
2023/04/25 16:14:40;;;;;;;4.63;1.00;;;;;;;;;;10141170;28;20063;-67
2023/04/25 16:19:35;;;;;;;4.78;0.90;;;;;;;;;;10135810;28;20048;-65
2023/04/25 16:24:28;;;;;;;10.07;3.40;;;;;;;;;;10128538;28;20090;-66
2023/04/25 16:29:21;;;;;;;7.80;1.73;;;;;;;;;;10124065;28;20487;-68
2023/04/25 16:34:16;;;;;;;6.45;1.75;;;;;;;;;;10142877;28;20045;-67
2023/04/25 16:39:08;;;;;;;6.50;1.15;;;;;;;;;;10146675;28;20491;-68
2023/04/25 16:44:05;;;;;;;2.50;1.77;;;;;;;;;;10145671;28;20076;-67
2023/04/25 16:48:59;;;;;;;4.07;1.95;;;;;;;;;;10144936;28;20539;-68
2023/04/25 16:53:54;;;;;;;2.28;0.90;;;;;;;;;;10147303;28;20483;-69
2023/04/25 16:58:48;;;;;;;1.92;1.27;;;;;;;;;;10133696;28;20056;-68
2023/04/25 17:03:42;;;;;;;3.22;2.38;;;;;;;;;;10139913;28;20135;-67
2023/04/25 17:08:35;;;;;;;4.18;2.50;;;;;;;;;;10139581;28;20044;-69
2023/04/25 17:13:29;;;;;;;4.70;3.10;;;;;;;;;;10141005;28;20044;-67
2023/04/25 17:18:23;;;;;;;6.03;3.38;;;;;;;;;;10149177;28;20048;-68
2023/04/25 17:23:18;;;;;;;9.90;7.25;;;;;;;;;;10142505;28;20060;-69
2023/04/25 17:28:12;;;;;;;4.90;2.53;;;;;;;;;;10147553;28;20503;-69
2023/04/25 17:33:05;;;;;;;20.00;13.68;;;;;;;;;;10147501;28;20041;-69
2023/04/25 17:38:00;;;;;;;29.45;20.38;;;;;;;;;;10151738;28;20072;-68
2023/04/25 17:42:55;;;;;;;8.35;3.80;;;;;;;;;;10136722;28;20392;-70
2023/04/25 17:47:48;;;;;;;6.80;2.70;;;;;;;;;;10140418;28;20516;-68
2023/04/25 17:52:43;;;;;;;10.10;5.63;;;;;;;;;;10124595;28;20048;-68
2023/04/25 17:57:37;;;;;;;17.45;14.38;;;;;;;;;;10122453;28;20488;-67
2023/04/25 18:02:32;;;;;;;5.80;3.75;;;;;;;;;;10118449;28;20057;-66
2023/04/25 18:07:26;;;;;;;3.50;3.00;;;;;;;;;;10116851;28;20053;-66
2023/04/25 18:12:19;;;;;;;4.18;1.83;;;;;;;;;;10127341;28;20040;-68
2023/04/25 18:17:13;;;;;;;1.70;1.52;;;;;;;;;;10114479;28;20045;-67
2023/04/25 18:22:07;;;;;;;2.15;1.40;;;;;;;;;;10132412;28;20541;-68
2023/04/25 18:27:04;;;;;;;2.50;2.30;;;;;;;;;;10117262;28;20061;-68
2023/04/25 18:31:58;;;;;;;1.90;1.17;;;;;;;;;;10127525;28;20140;-70
2023/04/25 18:36:54;;;;;;;1.10;1.10;;;;;;;;;;10138220;28;20052;-69
2023/04/25 18:41:49;;;;;;;3.17;2.58;;;;;;;;;;10146239;28;20135;-71
2023/04/25 18:46:52;;;;;;;7.70;3.67;;;;;;;;;;10122626;28;20054;-69
2023/04/25 18:51:47;;;;;;;5.57;3.63;;;;;;;;;;10128677;28;20415;-69
2023/04/25 18:56:41;;;;;;;6.57;3.70;;;;;;;;;;10152507;28;20041;-70
2023/04/25 19:01:35;;;;;;;5.45;3.95;;;;;;;;;;10128056;28;20055;-70
2023/04/25 19:06:28;;;;;;;8.00;4.85;;;;;;;;;;10146128;28;20067;-70
2023/04/25 19:11:23;;;;;;;5.65;4.30;;;;;;;;;;10149784;28;20060;-71
2023/04/25 19:16:18;;;;;;;8.73;4.47;;;;;;;;;;10136673;28;20463;-70
2023/04/25 19:21:14;;;;;;;10.60;6.03;;;;;;;;;;10143222;28;20076;-71
2023/04/25 19:26:07;;;;;;;6.32;5.50;;;;;;;;;;10146517;28;20127;-70
2023/04/25 19:31:01;;;;;;;6.10;4.70;;;;;;;;;;10134684;28;20052;-71
2023/04/25 19:35:54;;;;;;;8.77;4.63;;;;;;;;;;10139674;28;20048;-71
2023/04/25 19:40:48;;;;;;;6.00;4.18;;;;;;;;;;10158411;28;20051;-71
2023/04/25 19:45:41;;;;;;;3.95;3.58;;;;;;;;;;10144278;28;20409;-69
2023/04/25 19:50:35;;;;;;;12.50;6.63;;;;;;;;;;10141913;28;20053;-70
2023/04/25 19:55:29;;;;;;;11.05;6.03;;;;;;;;;;10132008;28;20504;-71
2023/04/25 20:00:22;;;;;;;5.63;5.00;;;;;;;;;;10138921;28;20049;-70
2023/04/25 20:05:17;;;;;;;6.10;3.40;;;;;;;;;;10130988;28;20082;-70
2023/04/25 20:10:14;;;;;;;5.80;3.55;;;;;;;;;;10139506;28;20410;-69
2023/04/25 20:15:08;;;;;;;3.63;3.13;;;;;;;;;;10129227;28;20508;-71
2023/04/25 20:20:05;;;;;;;4.07;3.40;;;;;;;;;;10142396;28;20051;-71
2023/04/25 20:24:58;;;;;;;5.43;4.75;;;;;;;;;;10122745;28;20048;-70
2023/04/25 20:29:51;;;;;;;8.30;4.00;;;;;;;;;;10140673;28;20037;-70
2023/04/25 20:34:46;;;;;;;6.53;4.47;;;;;;;;;;10151379;28;20052;-68
2023/04/25 20:39:40;;;;;;;5.22;4.47;;;;;;;;;;10153119;28;20475;-69
2023/04/25 20:44:33;;;;;;;6.65;4.35;;;;;;;;;;10145463;28;20103;-68
2023/04/25 20:49:27;;;;;;;15.45;11.27;;;;;;;;;;10160379;28;20049;-68
2023/04/25 20:54:20;;;;;;;9.82;7.10;;;;;;;;;;10145662;28;20468;-68
2023/04/25 20:59:15;;;;;;;6.88;5.38;;;;;;;;;;10154179;28;20036;-69
2023/04/25 21:04:09;;;;;;;8.07;5.78;;;;;;;;;;10147459;28;20107;-69
2023/04/25 21:09:03;;;;;;;5.72;4.80;;;;;;;;;;10148695;28;20522;-66
2023/04/25 21:13:56;;;;;;;7.22;5.20;;;;;;;;;;10149078;28;20106;-64
2023/04/25 21:18:52;;;;;;;9.43;7.20;;;;;;;;;;10148644;28;20486;-66
2023/04/25 21:23:46;;;;;;;5.95;5.00;;;;;;;;;;10130562;28;20048;-64
2023/04/25 21:28:39;;;;;;;4.70;4.25;;;;;;;;;;10153869;28;20098;-64
2023/04/25 21:33:33;;;;;;;5.43;4.93;;;;;;;;;;10140295;28;20040;-65
2023/04/25 21:38:28;;;;;;;5.43;4.80;;;;;;;;;;10142884;28;20048;-64
2023/04/25 21:43:20;;;;;;;5.53;5.00;;;;;;;;;;10129846;28;20393;-65
2023/04/25 21:48:14;;;;;;;7.55;5.03;;;;;;;;;;10104888;28;20129;-65
2023/04/25 21:53:09;;;;;;;7.10;5.10;;;;;;;;;;10081626;28;20574;-64
2023/04/25 21:58:04;;;;;;;11.10;5.25;;;;;;;;;;10085002;28;20054;-64
2023/04/25 22:02:59;;;;;;;7.88;4.75;;;;;;;;;;10087607;28;20143;-65
2023/04/25 22:07:57;;;;;;;5.90;5.38;;;;;;;;;;10081134;28;20587;-65
2023/04/25 22:12:51;;;;;;;8.02;5.13;;;;;;;;;;10106274;28;20076;-65
2023/04/25 22:17:45;;;;;;;6.82;4.85;;;;;;;;;;10093216;28;20421;-65
2023/04/25 22:22:40;;;;;;;5.95;4.47;;;;;;;;;;10067127;28;20053;-66
2023/04/25 22:27:34;;;;;;;4.25;3.70;;;;;;;;;;10079046;28;20076;-66
2023/04/25 22:32:28;;;;;;;5.32;4.30;;;;;;;;;;10082076;28;20053;-66
2023/04/25 22:37:22;;;;;;;6.70;5.30;;;;;;;;;;10084475;28;20057;-66
2023/04/25 22:42:15;;;;;;;6.05;4.40;;;;;;;;;;10075522;28;20512;-66
2023/04/25 22:47:09;;;;;;;4.78;4.25;;;;;;;;;;10091367;28;20518;-66
2023/04/25 22:52:06;;;;;;;5.55;4.40;;;;;;;;;;10143419;28;20041;-66
2023/04/25 22:56:58;;;;;;;6.60;5.07;;;;;;;;;;10111684;28;20083;-66
2023/04/25 23:01:52;;;;;;;5.55;4.95;;;;;;;;;;10123250;28;20045;-66
2023/04/25 23:06:45;;;;;;;6.78;4.80;;;;;;;;;;10116100;28;20049;-66
2023/04/25 23:11:42;;;;;;;5.53;5.03;;;;;;;;;;10125387;28;20056;-66
2023/04/25 23:16:36;;;;;;;5.35;4.88;;;;;;;;;;10130477;28;20048;-66
2023/04/25 23:21:30;;;;;;;8.30;5.05;;;;;;;;;;10124650;28;20132;-66
2023/04/25 23:26:24;;;;;;;6.28;5.68;;;;;;;;;;10112501;28;20040;-66
2023/04/25 23:31:17;;;;;;;6.28;5.22;;;;;;;;;;10117213;28;20053;-66
2023/04/25 23:36:32;;;;;;;5.50;5.00;;;;;;;;;;10107386;28;20059;-66
2023/04/25 23:41:25;;;;;;;6.22;5.63;;;;;;;;;;10110181;28;20037;-66
2023/04/25 23:46:19;;;;;;;7.70;4.97;;;;;;;;;;10128946;28;20040;-66
2023/04/25 23:51:13;;;;;;;5.55;4.50;;;;;;;;;;10078553;28;20455;-67
2023/04/25 23:56:07;;;;;;;4.45;4.05;;;;;;;;;;10081023;28;20041;-66
